Aviation Digital Data Service (ADDS)

Output produced by METARs form (2154 UTC 19 February 2018)
found at http://www.aviationweather.gov/adds/metars/
 
HEAX 192100Z 11004KT 9999 FEW020 BKN100 15/12 Q1015 NOSIG
TAF HEAX 191700Z 1918/2024 02008KT 9999 SCT020 
     TEMPO 2000/2008 VRB03KT 4000 BR NSC
       
HEBA 192100Z 00000KT 9999 FEW020 14/11 Q1015 NOSIG
TAF HEBA 191700Z 1918/2024 02008KT 9999 SCT020 
     TEMPO 2000/2008 VRB03KT 2000 BR NSC
       
HESN 192100Z 03003KT CAVOK 18/02 Q1013 NOSIG
TAF HESN 191700Z 1918/2024 36007KT CAVOK
       
HEAT 192100Z 03007KT CAVOK 17/07 Q1015 NOSIG
TAF HEAT 191700Z 1918/2024 32010KT CAVOK
       
HECA 192130Z 09010KT CAVOK 16/09 Q1014 NOSIG
TAF HECA 191700Z 1918/2024 35009KT 6000 BKN050 
     TEMPO 1918/2006 4000 HZ 
     PROB40 
     TEMPO 2003/2006 VRB03KT 3000BR NSC
       
HEAR 192100Z 00000KT CAVOK 13/07 Q1015 NOSIG
TAF HEAR 191700Z 1918/2024 31007KT 9999 SCT020 
     TEMPO 2000/2006 VRB03KT 3000 BR
       
HEGN 192100Z 26003KT CAVOK 18/10 Q1013 NOSIG
TAF HEGN 191700Z 1918/2024 33012KT 9999 SCT025 
     PROB30 
     TEMPO 1920/2006 4000 -RA BKN020
       
HELX 192100Z 00000KT CAVOK 16/04 Q1014 NOSIG
TAF HELX 191700Z 1918/2024 30005KT CAVOK 
     TEMPO 2006/2010 VRB03KT 4000 HZ NSC
       
HEMM 192100Z 12006KT 9999 FEW020 BKN200 14/12 Q1015 NOSIG
TAF HEMM 191700Z 1918/2024 10010KT 9999 SCT020 
     TEMPO 2000/2008 VRB03KT 3000 BR NSC
       
HEPS 192100Z 11003KT CAVOK 15/11 Q1015 NOSIG
TAF HEPS 191700Z 1918/2024 06009KT 9999 BKN050 
     TEMPO 2000/2006 VRB03KT 4000 BR NSC
       
HESH 192100Z VRB01KT CAVOK 20/03 Q1013 NOSIG
TAF HESH 191700Z 1918/2024 03012KT 9999 SCT025
       
TAF HETB 191700Z 1918/2024 02010KT CAVOK